createdAt,value
2019-01-21T00:02:04.664Z,112.22
2019-01-21T00:04:31.342Z,103.02
2019-01-21T00:06:58.515Z,97.25
2019-01-21T00:09:25.673Z,88.50
2019-01-21T00:11:52.330Z,89.13
2019-01-21T00:14:19.868Z,85.28
2019-01-21T00:16:46.574Z,85.00
2019-01-21T00:19:13.759Z,73.33
2019-01-21T00:24:33.070Z,51.10
2019-01-21T00:27:00.141Z,54.88
2019-01-21T00:29:27.217Z,64.17
2019-01-21T00:31:54.014Z,46.28
2019-01-21T00:34:21.156Z,41.73
2019-01-21T00:36:48.210Z,37.93
2019-01-21T00:39:15.516Z,42.25
2019-01-21T00:41:42.244Z,38.63
2019-01-21T00:44:09.272Z,41.40
2019-01-21T00:46:36.446Z,42.15
2019-01-21T00:49:03.471Z,42.05
2019-01-21T00:51:30.517Z,42.00
2019-01-21T00:53:57.316Z,44.60
2019-01-21T00:56:24.064Z,42.55
2019-01-21T00:58:50.753Z,44.13
2019-01-21T01:01:17.989Z,48.42
2019-01-21T01:03:45.048Z,48.13
2019-01-21T01:06:11.785Z,48.45
2019-01-21T01:08:38.965Z,45.80
2019-01-21T01:11:05.622Z,45.10
2019-01-21T01:13:32.725Z,46.33
2019-01-21T01:15:59.491Z,44.00
2019-01-21T01:18:26.637Z,44.38
2019-01-21T01:20:53.790Z,44.90
2019-01-21T01:23:20.960Z,50.10
2019-01-21T01:25:48.213Z,46.60
2019-01-21T01:28:15.340Z,43.87
2019-01-21T01:30:42.007Z,48.60
2019-01-21T01:33:09.334Z,45.85
2019-01-21T01:35:36.488Z,47.90
2019-01-21T01:38:03.141Z,46.10
2019-01-21T01:40:29.911Z,51.90
2019-01-21T01:42:57.671Z,49.10
2019-01-21T01:45:24.780Z,50.08
2019-01-21T01:47:52.233Z,48.52
2019-01-21T01:50:19.280Z,47.88
2019-01-21T01:52:45.938Z,48.38
2019-01-21T01:55:13.833Z,47.93
2019-01-21T01:57:40.962Z,45.50
2019-01-21T02:00:08.144Z,45.52
2019-01-21T02:02:35.263Z,46.68
2019-01-21T02:05:02.411Z,49.23
2019-01-21T02:07:29.364Z,51.50
2019-01-21T02:09:56.155Z,52.80
2019-01-21T02:12:22.879Z,53.30
2019-01-21T02:14:50.644Z,50.83
2019-01-21T02:17:18.147Z,52.10
2019-01-21T02:19:45.264Z,49.70
2019-01-21T02:22:12.564Z,44.42
2019-01-21T02:24:39.694Z,44.65
2019-01-21T02:27:06.864Z,45.55
2019-01-21T02:29:34.017Z,50.00
2019-01-21T02:32:01.698Z,49.08
2019-01-21T02:34:28.809Z,49.85
2019-01-21T02:36:55.507Z,48.05
2019-01-21T02:39:22.689Z,43.85
2019-01-21T02:41:49.843Z,43.25
2019-01-21T02:44:16.878Z,41.00
2019-01-21T02:46:45.409Z,39.70
2019-01-21T02:49:12.504Z,42.03
2019-01-21T02:51:40.267Z,41.35
2019-01-21T02:54:07.446Z,38.95
2019-01-21T02:56:35.131Z,44.25
2019-01-21T02:59:02.378Z,43.20
2019-01-21T03:01:30.672Z,39.60
2019-01-21T03:03:57.774Z,40.48
2019-01-21T03:06:24.929Z,38.63
2019-01-21T03:08:52.044Z,44.15
2019-01-21T03:11:19.119Z,40.23
2019-01-21T03:13:46.176Z,43.00
2019-01-21T03:16:14.076Z,43.55
2019-01-21T03:18:40.777Z,40.40
2019-01-21T03:21:08.791Z,42.17
2019-01-21T03:23:36.566Z,40.28
2019-01-21T03:26:03.615Z,40.20
2019-01-21T03:28:30.748Z,43.40
2019-01-21T03:30:57.878Z,42.45
2019-01-21T03:33:26.685Z,39.35
2019-01-21T03:35:53.421Z,42.33
2019-01-21T03:38:20.686Z,41.30
2019-01-21T03:40:47.798Z,40.78
2019-01-21T03:43:15.615Z,40.40
2019-01-21T03:45:42.821Z,40.80
2019-01-21T03:48:16.501Z,38.53
2019-01-21T03:50:39.331Z,40.00
2019-01-21T03:53:06.522Z,37.75
2019-01-21T03:55:33.584Z,38.13
2019-01-21T03:58:00.721Z,37.40
2019-01-21T04:00:27.867Z,37.93
2019-01-21T04:02:54.932Z,37.58
2019-01-21T04:05:21.970Z,40.28
2019-01-21T04:07:49.352Z,38.83
2019-01-21T04:10:17.153Z,36.13
2019-01-21T04:12:44.269Z,38.15
2019-01-21T04:15:11.388Z,41.70
2019-01-21T04:17:39.299Z,39.60
2019-01-21T04:20:05.994Z,36.35
2019-01-21T04:22:33.142Z,36.58
2019-01-21T04:25:00.214Z,38.50
2019-01-21T04:27:27.245Z,40.80
2019-01-21T04:29:54.315Z,37.80
2019-01-21T04:32:21.370Z,39.40
2019-01-21T04:34:48.536Z,38.45
2019-01-21T04:37:15.269Z,35.13
2019-01-21T04:39:42.398Z,38.90
2019-01-21T04:42:09.055Z,38.65
2019-01-21T04:44:36.263Z,38.92
2019-01-21T04:47:03.499Z,38.50
2019-01-21T04:49:30.393Z,37.30
2019-01-21T04:51:57.668Z,40.15
2019-01-21T04:54:24.790Z,38.60
2019-01-21T04:56:51.444Z,40.05
2019-01-21T04:59:18.517Z,40.33
2019-01-21T05:01:45.627Z,40.63
2019-01-21T05:04:12.878Z,41.10
2019-01-21T05:06:40.684Z,39.10
2019-01-21T05:09:07.795Z,39.45
2019-01-21T05:11:34.900Z,38.75
2019-01-21T05:14:02.682Z,36.63
2019-01-21T05:16:30.384Z,37.30
2019-01-21T05:18:57.177Z,39.30
2019-01-21T05:21:23.959Z,36.77
2019-01-21T05:23:51.079Z,37.45
2019-01-21T05:26:17.743Z,36.88
2019-01-21T05:28:44.454Z,39.25
2019-01-21T05:31:11.608Z,36.60
2019-01-21T05:33:38.339Z,38.10
2019-01-21T05:36:05.321Z,36.00
2019-01-21T05:38:32.425Z,36.90
2019-01-21T05:41:00.320Z,40.92
2019-01-21T05:43:26.982Z,38.78
2019-01-21T05:45:54.849Z,40.43
2019-01-21T05:48:21.979Z,38.70
2019-01-21T05:50:49.785Z,36.93
2019-01-21T05:53:17.013Z,36.23
2019-01-21T05:55:43.931Z,35.43
2019-01-21T05:58:10.586Z,37.58
2019-01-21T06:00:38.483Z,36.93
2019-01-21T06:03:05.207Z,34.92
2019-01-21T06:05:31.943Z,35.43
2019-01-21T06:07:59.077Z,37.23
2019-01-21T06:10:26.100Z,37.95
2019-01-21T06:12:52.837Z,35.17
2019-01-21T06:15:19.831Z,34.20
2019-01-21T06:17:47.008Z,37.15
2019-01-21T06:20:14.216Z,39.45
2019-01-21T06:22:40.875Z,36.42
2019-01-21T06:25:07.999Z,31.70
2019-01-21T06:27:34.731Z,36.60
2019-01-21T06:30:01.415Z,33.83
2019-01-21T06:32:28.632Z,33.08
2019-01-21T06:34:55.772Z,33.42
2019-01-21T06:37:22.848Z,32.55
2019-01-21T06:39:49.638Z,34.95
2019-01-21T06:42:16.655Z,34.70
2019-01-21T06:44:43.305Z,34.03
2019-01-21T06:47:10.154Z,37.98
2019-01-21T06:49:37.248Z,38.23
2019-01-21T06:52:04.424Z,37.53
2019-01-21T06:54:31.171Z,35.92
2019-01-21T06:56:58.284Z,41.30
2019-01-21T06:59:25.410Z,37.63
2019-01-21T07:01:52.507Z,43.10
2019-01-21T07:04:19.648Z,42.75
2019-01-21T07:06:46.362Z,39.95
2019-01-21T07:09:13.419Z,36.73
2019-01-21T07:11:40.461Z,32.28
2019-01-21T07:14:07.543Z,33.00
2019-01-21T07:16:34.668Z,36.60
2019-01-21T07:19:01.434Z,34.25
2019-01-21T07:21:28.096Z,36.23
2019-01-21T07:23:54.763Z,31.20
2019-01-21T07:26:21.880Z,30.10
2019-01-21T07:28:48.568Z,31.30
2019-01-21T07:31:15.285Z,33.05
2019-01-21T07:33:42.362Z,30.32
2019-01-21T07:36:09.089Z,27.25
2019-01-21T07:38:36.254Z,31.65
2019-01-21T07:41:02.977Z,31.35
2019-01-21T07:43:30.198Z,36.42
2019-01-21T07:45:57.299Z,39.18
2019-01-21T07:48:24.127Z,35.60
2019-01-21T07:50:50.838Z,35.65
2019-01-21T07:53:17.553Z,37.67
2019-01-21T07:55:44.666Z,37.73
2019-01-21T07:58:11.322Z,36.08
2019-01-21T08:00:38.453Z,35.40
2019-01-21T08:03:05.172Z,33.35
2019-01-21T08:05:32.241Z,33.23
2019-01-21T08:08:00.221Z,32.45
2019-01-21T08:10:27.437Z,31.20
2019-01-21T08:12:54.622Z,32.55
2019-01-21T08:15:21.274Z,32.78
2019-01-21T08:17:48.019Z,34.20
2019-01-21T08:20:15.223Z,35.60
2019-01-21T08:22:41.953Z,35.05
2019-01-21T08:25:09.045Z,33.08
2019-01-21T08:27:35.774Z,25.60
2019-01-21T08:30:02.497Z,33.92
2019-01-21T08:32:29.623Z,32.10
2019-01-21T08:34:56.406Z,30.95
2019-01-21T08:37:23.460Z,30.50
2019-01-21T08:39:50.104Z,30.70
2019-01-21T08:42:17.110Z,31.27
2019-01-21T08:44:43.815Z,30.35
2019-01-21T08:47:10.989Z,32.67
2019-01-21T08:49:38.195Z,31.68
2019-01-21T08:52:05.675Z,32.75
2019-01-21T08:54:32.796Z,31.60
2019-01-21T08:56:59.516Z,33.73
2019-01-21T08:59:26.590Z,32.73
2019-01-21T09:01:53.344Z,32.03
2019-01-21T09:04:20.012Z,35.00
2019-01-21T09:06:47.089Z,33.28
2019-01-21T09:09:13.897Z,31.10
2019-01-21T09:11:40.579Z,31.80
2019-01-21T09:14:07.305Z,34.60
2019-01-21T09:16:34.361Z,36.35
2019-01-21T09:19:01.568Z,34.63
2019-01-21T09:21:28.240Z,34.33
2019-01-21T09:23:54.974Z,35.20
2019-01-21T09:26:22.809Z,33.00
2019-01-21T09:28:49.550Z,34.70
2019-01-21T09:31:16.312Z,33.85
2019-01-21T09:33:43.405Z,31.25
2019-01-21T09:36:10.090Z,31.23
2019-01-21T09:38:37.324Z,30.62
2019-01-21T09:41:04.000Z,30.70
2019-01-21T09:43:30.656Z,30.15
2019-01-21T09:45:57.713Z,30.88
2019-01-21T09:48:24.851Z,36.68
2019-01-21T09:50:52.357Z,36.95
2019-01-21T09:53:19.484Z,37.67
2019-01-21T09:55:46.643Z,39.08
2019-01-21T09:58:13.881Z,39.40
2019-01-21T10:00:41.015Z,34.25
2019-01-21T10:03:09.031Z,35.15
2019-01-21T10:05:35.689Z,35.08
2019-01-21T10:08:03.057Z,36.50
2019-01-21T10:10:30.180Z,35.50
2019-01-21T10:12:57.384Z,26.90
2019-01-21T10:15:25.156Z,31.02
2019-01-21T10:17:51.824Z,31.50
2019-01-21T10:20:18.546Z,32.48
2019-01-21T10:22:45.803Z,31.60
2019-01-21T10:25:12.827Z,31.60
2019-01-21T10:27:39.960Z,32.53
2019-01-21T10:30:06.709Z,31.17
2019-01-21T10:32:34.350Z,33.90
2019-01-21T10:35:02.119Z,35.78
2019-01-21T10:37:28.836Z,39.27
2019-01-21T10:39:55.590Z,33.20
2019-01-21T10:42:22.247Z,31.73
2019-01-21T10:44:49.432Z,32.53
2019-01-21T10:47:16.150Z,30.50
2019-01-21T10:49:43.227Z,31.60
2019-01-21T10:52:10.356Z,29.18
2019-01-21T10:54:38.193Z,29.55
2019-01-21T10:57:05.271Z,29.75
2019-01-21T10:59:32.440Z,31.17
2019-01-21T11:01:59.494Z,29.70
2019-01-21T11:04:26.216Z,27.32
2019-01-21T11:06:53.813Z,30.60
2019-01-21T11:09:26.517Z,29.45
2019-01-21T11:11:53.944Z,26.80
2019-01-21T11:14:17.703Z,29.63
2019-01-21T11:16:44.726Z,28.40
2019-01-21T11:19:11.389Z,30.43
2019-01-21T11:21:38.191Z,29.15
2019-01-21T11:24:05.473Z,27.15
2019-01-21T11:26:33.193Z,31.48
2019-01-21T11:28:59.896Z,31.27
2019-01-21T11:31:27.133Z,34.05
2019-01-21T11:33:54.770Z,30.95
2019-01-21T11:36:21.953Z,30.15
2019-01-21T11:38:48.637Z,30.75
2019-01-21T11:41:15.371Z,27.80
2019-01-21T11:43:42.631Z,26.65
2019-01-21T11:46:09.714Z,29.77
2019-01-21T11:48:36.446Z,30.30
2019-01-21T11:51:03.215Z,32.40
2019-01-21T11:53:30.443Z,29.57
2019-01-21T11:55:57.516Z,31.60
2019-01-21T11:58:24.248Z,34.23
2019-01-21T12:00:50.976Z,32.90
2019-01-21T12:03:23.431Z,34.38
2019-01-21T12:05:46.833Z,33.95
2019-01-21T12:08:13.985Z,30.30
2019-01-21T12:10:41.004Z,30.68
2019-01-21T12:13:07.756Z,33.05
2019-01-21T12:15:34.817Z,31.30
2019-01-21T12:18:02.095Z,28.15
2019-01-21T12:20:29.260Z,27.37
2019-01-21T12:22:56.127Z,29.15
2019-01-21T12:25:22.901Z,26.68
2019-01-21T12:27:49.604Z,27.05
2019-01-21T12:30:16.716Z,28.77
2019-01-21T12:32:43.911Z,29.50
2019-01-21T12:35:10.972Z,29.48
2019-01-21T12:37:38.801Z,29.25
2019-01-21T12:40:05.990Z,28.98
2019-01-21T12:42:32.691Z,29.55
2019-01-21T12:44:59.362Z,25.95
2019-01-21T12:47:26.334Z,25.52
2019-01-21T12:49:53.117Z,27.20
2019-01-21T12:52:19.849Z,28.75
2019-01-21T12:54:46.832Z,26.73
2019-01-21T12:57:13.573Z,26.05
2019-01-21T12:59:40.736Z,29.75
2019-01-21T13:02:07.456Z,27.27
2019-01-21T13:04:34.547Z,27.70
2019-01-21T13:07:01.360Z,28.77
2019-01-21T13:09:28.062Z,29.25
2019-01-21T13:11:54.722Z,25.97
2019-01-21T13:14:21.666Z,28.90
2019-01-21T13:16:48.823Z,28.87
2019-01-21T13:19:15.899Z,28.62
2019-01-21T13:21:43.706Z,27.37
2019-01-21T13:24:10.428Z,27.45
2019-01-21T13:26:37.179Z,29.32
2019-01-21T13:29:03.902Z,25.62
2019-01-21T13:31:30.949Z,27.20
2019-01-21T13:33:58.087Z,28.90
2019-01-21T13:36:25.003Z,28.32
2019-01-21T13:38:51.705Z,28.65
2019-01-21T13:41:19.591Z,28.27
2019-01-21T13:43:46.253Z,26.42
2019-01-21T13:46:13.033Z,25.85
2019-01-21T13:48:39.800Z,24.60
2019-01-21T13:51:06.528Z,27.40
2019-01-21T13:53:33.182Z,25.00
2019-01-21T13:56:00.313Z,26.68
2019-01-21T13:58:27.696Z,26.25
2019-01-21T14:00:55.459Z,25.35
2019-01-21T14:03:22.548Z,28.02
2019-01-21T14:05:49.619Z,29.15
2019-01-21T14:08:16.764Z,32.13
2019-01-21T14:10:43.891Z,31.80
2019-01-21T14:13:10.658Z,36.58
2019-01-21T14:15:37.907Z,34.58
2019-01-21T14:18:04.606Z,37.58
2019-01-21T14:20:32.304Z,39.75
2019-01-21T14:22:59.499Z,35.90
2019-01-21T14:25:26.218Z,31.25
2019-01-21T14:27:52.990Z,33.08
2019-01-21T14:30:20.142Z,30.40
2019-01-21T14:32:47.248Z,31.30
2019-01-21T14:35:15.415Z,30.02
2019-01-21T14:37:42.613Z,33.23
2019-01-21T14:40:10.256Z,31.55
2019-01-21T14:42:36.992Z,29.50
2019-01-21T14:45:04.264Z,28.35
2019-01-21T14:47:30.969Z,27.52
2019-01-21T14:49:57.921Z,28.77
2019-01-21T14:52:27.032Z,30.82
2019-01-21T14:54:54.928Z,30.00
2019-01-21T14:57:23.992Z,30.92
2019-01-21T14:59:52.374Z,27.15
2019-01-21T15:02:19.100Z,29.37
2019-01-21T15:04:49.570Z,28.47
2019-01-21T15:07:16.678Z,30.43
2019-01-21T15:09:43.595Z,29.92
2019-01-21T15:12:10.837Z,28.60
2019-01-21T15:14:38.142Z,31.30
2019-01-21T15:17:06.116Z,29.52
2019-01-21T15:19:33.356Z,31.12
2019-01-21T15:22:00.292Z,33.42
2019-01-21T15:24:27.577Z,30.57
2019-01-21T15:26:57.447Z,34.85
2019-01-21T15:29:24.611Z,34.50
2019-01-21T15:31:52.309Z,35.78
2019-01-21T15:34:19.142Z,41.70
2019-01-21T15:36:47.327Z,41.88
2019-01-21T15:39:14.768Z,44.98
2019-01-21T15:41:42.037Z,41.88
2019-01-21T15:44:09.174Z,42.48
2019-01-21T15:46:36.300Z,38.70
2019-01-21T15:49:03.464Z,36.50
2019-01-21T15:51:30.597Z,41.53
2019-01-21T15:53:58.403Z,37.38
2019-01-21T15:56:25.132Z,37.60
2019-01-21T15:58:52.348Z,37.83
2019-01-21T16:01:19.079Z,40.52
2019-01-21T16:03:46.135Z,40.45
2019-01-21T16:06:13.321Z,38.38
2019-01-21T16:08:41.124Z,36.93
2019-01-21T16:11:08.182Z,39.65
2019-01-21T16:13:34.919Z,38.65
2019-01-21T16:16:01.682Z,38.15
2019-01-21T16:18:28.372Z,35.70
2019-01-21T16:20:55.474Z,37.08
2019-01-21T16:23:22.229Z,35.70
2019-01-21T16:25:48.954Z,35.88
2019-01-21T16:28:15.672Z,34.83
2019-01-21T16:30:42.847Z,34.95
2019-01-21T16:33:10.012Z,34.63
2019-01-21T16:35:37.151Z,36.45
2019-01-21T16:38:04.190Z,34.00
2019-01-21T16:40:31.380Z,35.50
2019-01-21T16:42:58.504Z,37.10
2019-01-21T16:45:25.400Z,38.92
2019-01-21T16:47:52.120Z,36.88
2019-01-21T16:50:19.207Z,41.05
2019-01-21T16:52:45.999Z,43.95
2019-01-21T16:55:13.463Z,39.53
2019-01-21T16:57:40.482Z,36.08
2019-01-21T17:00:07.198Z,33.45
2019-01-21T17:02:33.931Z,31.02
2019-01-21T17:05:00.659Z,32.85
2019-01-21T17:07:27.777Z,31.48
2019-01-21T17:09:54.913Z,38.58
2019-01-21T17:12:21.629Z,34.98
2019-01-21T17:14:48.365Z,35.98
2019-01-21T17:17:15.510Z,35.65
2019-01-21T17:19:42.230Z,39.90
2019-01-21T17:22:09.425Z,42.85
2019-01-21T17:24:36.576Z,38.28
2019-01-21T17:27:04.383Z,39.80
2019-01-21T17:29:31.168Z,41.75
2019-01-21T17:31:58.247Z,37.15
2019-01-21T17:34:25.399Z,32.10
2019-01-21T17:36:52.333Z,35.00
2019-01-21T17:39:19.005Z,34.18
2019-01-21T17:41:46.118Z,41.25
2019-01-21T17:44:13.276Z,56.95
2019-01-21T17:46:40.414Z,52.55
2019-01-21T17:49:07.554Z,46.05
2019-01-21T17:51:35.418Z,43.35
2019-01-21T17:54:02.547Z,43.83
2019-01-21T17:56:29.238Z,41.73
2019-01-21T17:58:56.375Z,32.35
2019-01-21T18:01:23.137Z,31.12
2019-01-21T18:03:49.834Z,34.15
2019-01-21T18:06:17.665Z,36.08
2019-01-21T18:08:44.470Z,34.10
2019-01-21T18:11:11.190Z,29.25
2019-01-21T18:13:37.881Z,29.72
2019-01-21T18:16:04.640Z,27.50
2019-01-21T18:18:31.734Z,29.18
2019-01-21T18:20:58.887Z,29.70
2019-01-21T18:23:25.585Z,30.02
2019-01-21T18:25:53.199Z,27.80
2019-01-21T18:28:20.385Z,29.75
2019-01-21T18:30:47.586Z,32.53
2019-01-21T18:33:14.628Z,33.45
2019-01-21T18:35:41.351Z,34.45
2019-01-21T18:38:08.095Z,33.00
2019-01-21T18:40:36.046Z,30.97
2019-01-21T18:43:04.861Z,34.25
2019-01-21T18:45:31.510Z,31.82
2019-01-21T18:47:58.263Z,33.35
2019-01-21T18:50:24.965Z,29.25
2019-01-21T18:52:52.140Z,39.92
2019-01-21T18:55:18.850Z,36.70
2019-01-21T18:57:45.886Z,31.75
2019-01-21T19:00:12.980Z,32.30
2019-01-21T19:02:39.706Z,32.83
2019-01-21T19:05:06.517Z,43.20
2019-01-21T19:07:33.207Z,39.18
2019-01-21T19:10:00.227Z,36.73
2019-01-21T19:12:27.510Z,40.80
2019-01-21T19:14:55.361Z,38.92
2019-01-21T19:17:22.393Z,39.65
2019-01-21T19:19:49.153Z,38.42
2019-01-21T19:22:15.840Z,34.55
2019-01-21T19:24:43.093Z,33.18
2019-01-21T19:27:09.825Z,32.05
2019-01-21T19:29:36.523Z,31.07
2019-01-21T19:32:03.315Z,30.85
2019-01-21T19:34:29.959Z,32.10
2019-01-21T19:36:56.662Z,33.35
2019-01-21T19:39:23.417Z,30.75
2019-01-21T19:41:50.535Z,32.40
2019-01-21T19:44:17.327Z,28.27
2019-01-21T19:46:44.607Z,30.10
2019-01-21T19:49:11.349Z,29.32
2019-01-21T19:51:38.051Z,30.10
2019-01-21T19:54:04.726Z,30.43
2019-01-21T19:56:31.900Z,30.23
2019-01-21T19:58:58.590Z,30.60
2019-01-21T20:01:27.043Z,29.15
2019-01-21T20:03:54.369Z,34.60
2019-01-21T20:06:21.682Z,39.48
2019-01-21T20:08:49.353Z,39.40
2019-01-21T20:11:17.054Z,44.10
2019-01-21T20:13:44.652Z,46.35
2019-01-21T20:16:12.644Z,37.85
2019-01-21T20:18:39.720Z,32.23
2019-01-21T20:21:06.677Z,31.07
2019-01-21T20:23:34.113Z,33.05
2019-01-21T20:26:01.553Z,35.98
2019-01-21T20:28:29.626Z,34.78
2019-01-21T20:30:57.166Z,34.58
2019-01-21T20:33:24.049Z,33.78
2019-01-21T20:35:51.080Z,33.92
2019-01-21T20:38:17.792Z,37.28
2019-01-21T20:40:44.916Z,33.98
2019-01-21T20:43:11.789Z,36.53
2019-01-21T20:45:39.140Z,35.90
2019-01-21T20:48:06.707Z,38.28
2019-01-21T20:50:33.417Z,35.05
2019-01-21T20:53:00.244Z,38.58
2019-01-21T20:55:27.287Z,34.27
2019-01-21T20:57:54.453Z,35.48
2019-01-21T21:00:22.585Z,32.90
2019-01-21T21:02:49.661Z,34.30
2019-01-21T21:05:16.385Z,32.40
2019-01-21T21:07:43.047Z,36.83
2019-01-21T21:10:09.862Z,36.98
2019-01-21T21:12:36.982Z,35.73
2019-01-21T21:15:03.726Z,37.35
2019-01-21T21:17:31.040Z,40.08
2019-01-21T21:19:57.790Z,40.95
2019-01-21T21:22:24.506Z,39.15
2019-01-21T21:24:51.642Z,38.02
2019-01-21T21:27:18.712Z,40.65
2019-01-21T21:29:45.778Z,38.85
2019-01-21T21:32:12.527Z,37.30
2019-01-21T21:34:39.225Z,36.08
2019-01-21T21:37:05.947Z,34.30
2019-01-21T21:39:32.725Z,38.23
2019-01-21T21:41:59.433Z,38.78
2019-01-21T21:44:26.792Z,40.23
2019-01-21T21:46:53.965Z,37.30
2019-01-21T21:49:21.137Z,40.12
2019-01-21T21:51:48.268Z,37.95
2019-01-21T21:54:15.443Z,38.90
2019-01-21T21:56:42.541Z,43.78
2019-01-21T21:59:10.017Z,46.40
2019-01-21T22:01:40.147Z,38.42
2019-01-21T22:04:05.958Z,39.58
2019-01-21T22:06:32.688Z,41.05
2019-01-21T22:08:59.731Z,40.63
2019-01-21T22:11:26.465Z,45.48
2019-01-21T22:13:53.847Z,40.05
2019-01-21T22:16:20.612Z,37.53
2019-01-21T22:18:47.735Z,38.75
2019-01-21T22:21:14.793Z,39.95
2019-01-21T22:23:41.482Z,40.90
2019-01-21T22:26:08.744Z,40.45
2019-01-21T22:28:35.400Z,39.92
2019-01-21T22:31:02.261Z,39.33
2019-01-21T22:33:29.010Z,40.25
2019-01-21T22:35:55.737Z,41.85
2019-01-21T22:38:22.508Z,42.85
2019-01-21T22:40:49.532Z,42.40
2019-01-21T22:43:16.226Z,43.92
2019-01-21T22:45:43.331Z,40.15
2019-01-21T22:48:09.986Z,42.25
2019-01-21T22:50:37.103Z,46.88
2019-01-21T22:53:04.155Z,46.48
2019-01-21T22:55:31.209Z,45.15
2019-01-21T22:57:58.325Z,47.50
2019-01-21T23:00:26.011Z,47.35
2019-01-21T23:02:53.162Z,45.03
2019-01-21T23:05:20.223Z,42.62
2019-01-21T23:07:47.366Z,40.85
2019-01-21T23:10:14.086Z,41.20
2019-01-21T23:12:41.165Z,41.25
2019-01-21T23:15:08.716Z,42.08
2019-01-21T23:17:35.865Z,44.48
2019-01-21T23:20:02.933Z,42.53
2019-01-21T23:22:29.673Z,45.15
2019-01-21T23:24:56.322Z,43.23
2019-01-21T23:27:23.012Z,42.00
2019-01-21T23:29:49.749Z,40.38
2019-01-21T23:32:16.816Z,41.30
2019-01-21T23:34:44.334Z,40.15
2019-01-21T23:37:11.836Z,42.23
2019-01-21T23:39:38.494Z,41.90
2019-01-21T23:42:05.166Z,41.90
2019-01-21T23:44:32.256Z,44.18
2019-01-21T23:46:59.407Z,43.92
2019-01-21T23:49:26.134Z,45.70
2019-01-21T23:51:53.201Z,45.38
2019-01-21T23:54:20.230Z,44.85
2019-01-21T23:56:46.998Z,46.65
2019-01-21T23:59:14.134Z,46.35
